Akron, Pennsylvania
Current Conditions -  °F | °C
As of 2:53 AM on Sunday 21 Dec 2014 (Local Time) from KLNS Reporting Station
Overcast Overcast  
Wind Chill: 29°   Ceiling: 3400
Heat Index: 29°   Visibility: 9mi
Dew Point: 23°   Wind: 3mph
Humidity: 78%   Direction: 280°W
Pressure: 30.29"   Gusts: NA
Location:  40.16°N, 76.2°W
Report Text: KLNS 210753Z AUTO 28003KT 9SM BKN034 BKN080 OVC110 M02/M05 A3029 RMK AO2 SLP261 T10171050
Loading
Personal Weather Stations






























Interactive Weather Map New forecast layout! Learn more

10-Day Weather Forecast

Advertisements
Track Severe Weather on mobile